Monday, January 22, 2018, 1:56 PM GMT
Back to Local

CWKG, Kejimkujik 1, N. S.

Location: , , Canada Lat: 44.433
Local Time: 1:56 PM GMT (13:56 GMT) Lon: -65.2
Time Zone: GMT Elev: 416 ft

Show me the last for .
Show Coded

Time T Td Feel RH Dir Speed Gust Alt SLP Vis Weather Sky Remarks
2018-01-22 13:00 18 4 11 52 10° 5 - - 30.38 0 None
2018-01-22 12:00 18 4 13 52 20° 3 - - 30.34 0 None
2018-01-22 11:00 20 8 - 57 20° 2 - - 30.33 0 None
2018-01-22 10:00 20 7 15 57 10° 3 - - 30.30 0 None
2018-01-22 09:00 21 11 15 65 360° 5 - - 30.28 0 None
2018-01-22 08:00 23 13 16 65 360° 6 - - 30.25 0 None
2018-01-22 07:00 26 14 18 59 340° 7 - - 30.23 0 None
2018-01-22 06:00 26 18 21 72 340° 5 - - 30.20 0 None
2018-01-22 05:00 26 19 - 76 310° 1 - - 30.18 0 None
2018-01-22 04:00 28 21 24 75 310° 3 - - 30.17 0 None
2018-01-22 03:00 25 20 20 83 320° 3 - - 30.16 0 None
2018-01-22 02:00 25 20 - 82 270° 2 - - 30.15 0 None
2018-01-22 01:00 25 20 20 82 280° 3 - - 30.14 0 None
2018-01-22 00:00 25 20 - 80 240° 2 - - 30.12 0 None
2018-01-21 23:00 26 19 - 76 270° 2 - - 30.11 0 None
2018-01-21 22:00 27 20 23 72 310° 3 - - 30.08 0 None
2018-01-21 21:00 29 18 25 63 310° 3 - - 30.08 0 None
2018-01-21 20:00 32 19 26 59 310° 6 - - 30.05 0 None
2018-01-21 19:00 33 19 27 55 310° 8 - - 30.03 0 None
2018-01-21 18:00 34 20 28 57 320° 7 - - 30.00 0 None
2018-01-21 17:00 34 19 28 54 300° 7 - - 30.01 0 None
2018-01-21 16:00 33 19 29 54 310° 5 - - 30.00 0 None
2018-01-21 15:00 31 19 19 60 310° 9 20 - 30.01 0 Peak wind: 19 mph (17 kts) from 340° at 09 min
2018-01-21 14:00 31 22 25 68 330° 7 - - 30.00 0 None

Support USWX by starting your Amazon purchase here.